気象予報士の航空気象 ダーバンの空港

*All archives   *Admin

2010.06.19 (Sat)

ダーバンの空港

FALE 191400Z 05016KT CAVOK 22/07 Q1020 NOSIG


南アフリカ共和国、ダーバンにある国際空港、キング・シャカ国際空港。


今年の5月1日に開港したできたてほやほや。


IATAコードはDUR、ICAOコードFALE。


天気はよかったのですが、日本は惜敗。


残念。

 
ブログランキングに参加しています。
にほんブログ村 環境ブログ 天気・気象学へ
にほんブログ村
応援クリックをおねがします。


以下、アフィリエイトサイトです。




スポンサーサイト
23:35  |  時事  |  TB(0)  |  CM(0)  |  EDIT  |  Top↑

コメントを投稿する


 管理者だけに表示  (非公開コメント投稿可能)

▲PageTop

この記事のトラックバックURL

→http://weathereucalyptus.blog115.fc2.com/tb.php/520-5e5e745d
この記事にトラックバックする(FC2ブログユーザー)

この記事へのトラックバック

▲PageTop

 | BLOGTOP |